アラート の空港の天気 - METARとTAF

Alert Airport ( CYLT / YLT ) - カナダ ヌナブト準州アラート
飛行場実況気象(Metar)
観測時間01/22 16:00 EST (01/22 21:00 UTC)
風向・風速西南西 1m/s
視程10km以上
天気現象
少しの雲 雲底高度 240m
全天を覆う雲 雲底高度 460m
気温-23℃
湿度70%
気圧1020.4hPa
METARCYLT 222100Z 25002KT 10SM FEW008 OVC015 M23/M27 A3012 RMK ST2SC6 LAST OBS/NEXT 230700 UTC SLP204
過去の天気等 Google飛行場航空写真 Wunderground天気予報

過去48時間のMETAR

飛行場予報(TAF)
発表時間: 1/22 15:17 EST (1/22 20:17 UTC)
予報対象時間: 22日15時 EST ~ 23日1時 EST
風向・風速不定 2m/s
視程10km以上
天気現象弱い雪
全天の4割程度の雲 雲底高度 240m
全天を覆う雲 雲底高度 460m
22日15時 EST ~ 23日1時 EST に一時的に
視程8,050m
天気現象弱い雪
全天を覆う雲 雲底高度 240m
TAF AMD CYLT 222017Z 2220/2306 VRB03KT P6SM -SN SCT008 OVC015
TEMPO 2220/2306 5SM -SN OVC008 RMK NXT FCST BY 230000Z